createdAt,value
2023-03-11T00:00:50.539Z,9.418423
2023-03-11T00:01:50.545Z,9.418373
2023-03-11T00:02:50.500Z,9.418418
2023-03-11T00:03:50.519Z,9.418292
2023-03-11T00:04:50.492Z,9.418412
2023-03-11T00:05:50.527Z,9.418289
2023-03-11T00:06:50.472Z,9.418282
2023-03-11T00:07:50.483Z,9.418447
2023-03-11T00:08:50.477Z,9.418256
2023-03-11T00:09:50.476Z,9.418227
2023-03-11T00:10:50.461Z,9.418133
2023-03-11T00:11:50.455Z,9.418234
2023-03-11T00:12:50.451Z,9.418339
2023-03-11T00:13:50.458Z,9.418335
2023-03-11T00:14:50.430Z,9.418339
2023-03-11T00:15:50.429Z,9.418290
2023-03-11T00:16:50.492Z,9.418289
2023-03-11T00:17:50.432Z,9.418356
2023-03-11T00:18:50.413Z,9.418313
2023-03-11T00:19:50.414Z,9.418359
2023-03-11T00:20:50.408Z,9.418308
2023-03-11T00:21:50.381Z,9.418448
2023-03-11T00:22:50.374Z,9.418305
2023-03-11T00:23:50.366Z,9.418334
2023-03-11T00:24:50.385Z,9.418297
2023-03-11T00:25:50.400Z,9.418405
2023-03-11T00:26:50.350Z,9.418364
2023-03-11T00:27:50.363Z,9.418180
2023-03-11T00:28:50.343Z,9.418247
2023-03-11T00:29:50.337Z,9.418132
2023-03-11T00:30:50.325Z,9.418231
2023-03-11T00:31:50.333Z,9.417823
2023-03-11T00:32:50.494Z,9.418123
2023-03-11T00:33:50.299Z,9.418128
2023-03-11T00:34:50.299Z,9.418236
2023-03-11T00:35:50.382Z,9.418285
2023-03-11T00:36:50.318Z,9.418395
2023-03-11T00:37:50.282Z,9.418263
2023-03-11T00:38:50.308Z,9.418320
2023-03-11T00:39:50.265Z,9.418308
2023-03-11T00:40:50.294Z,9.418322
2023-03-11T00:41:50.245Z,9.418294
2023-03-11T00:42:50.244Z,9.418469
2023-03-11T00:43:50.238Z,9.418346
2023-03-11T00:44:50.223Z,9.418324
2023-03-11T00:45:50.257Z,9.418270
2023-03-11T00:46:50.215Z,9.418180
2023-03-11T00:47:50.222Z,9.418292
2023-03-11T00:48:50.197Z,9.418558
2023-03-11T00:49:50.205Z,9.418423
2023-03-11T00:50:50.175Z,9.418426
2023-03-11T00:51:50.199Z,9.418501
2023-03-11T00:52:50.176Z,9.418474
2023-03-11T00:53:50.163Z,9.418395
2023-03-11T00:54:50.161Z,9.418400
2023-03-11T00:55:50.161Z,9.418448
2023-03-11T00:56:50.139Z,9.418357
2023-03-11T00:57:50.149Z,9.418316
2023-03-11T00:58:50.130Z,9.418368
2023-03-11T00:59:50.126Z,9.418382
2023-03-11T01:00:50.119Z,9.418372
2023-03-11T01:01:50.101Z,9.418399
2023-03-11T01:02:50.106Z,9.418289
2023-03-11T01:03:50.112Z,9.418251
2023-03-11T01:04:50.241Z,9.418229
2023-03-11T01:05:50.142Z,9.418244
2023-03-11T01:06:50.066Z,9.418262
2023-03-11T01:07:50.083Z,9.418266
2023-03-11T01:08:50.064Z,9.418222
2023-03-11T01:09:50.085Z,9.418264
2023-03-11T01:10:50.046Z,9.418242
2023-03-11T01:11:50.030Z,9.418181
2023-03-11T01:12:50.050Z,9.418195
2023-03-11T01:13:50.031Z,9.418277
2023-03-11T01:14:50.022Z,9.418151
2023-03-11T01:15:50.050Z,9.418417
2023-03-11T01:16:50.016Z,9.418310
2023-03-11T01:17:50.012Z,9.418328
2023-03-11T01:18:50.005Z,9.418311
2023-03-11T01:19:50.006Z,9.418294
2023-03-11T01:20:50.027Z,9.418298
2023-03-11T01:21:49.971Z,9.418295
2023-03-11T01:22:49.968Z,9.418298
2023-03-11T01:23:49.968Z,9.418244
2023-03-11T01:24:49.962Z,9.418300
2023-03-11T01:25:49.961Z,9.418287
2023-03-11T01:26:49.948Z,9.418264
2023-03-11T01:27:49.928Z,9.418218
2023-03-11T01:28:49.930Z,9.418206
2023-03-11T01:29:49.918Z,9.418303
2023-03-11T01:30:49.980Z,9.418297
2023-03-11T01:31:49.903Z,9.418264
2023-03-11T01:32:50.004Z,9.418360
2023-03-11T01:33:49.893Z,9.418186
2023-03-11T01:34:49.889Z,9.418324
2023-03-11T01:35:49.934Z,9.418380
2023-03-11T01:36:49.868Z,9.418192
2023-03-11T01:37:49.885Z,9.418274
2023-03-11T01:38:49.868Z,9.418275
2023-03-11T01:39:49.846Z,9.418279
2023-03-11T01:40:49.855Z,9.418233
2023-03-11T01:41:49.841Z,9.418334
2023-03-11T01:42:49.838Z,9.418372
2023-03-11T01:43:49.845Z,9.418324
2023-03-11T01:44:49.827Z,9.418303
2023-03-11T01:45:49.834Z,9.418262
2023-03-11T01:46:49.891Z,9.418259
2023-03-11T01:47:49.798Z,9.418182
2023-03-11T01:48:49.792Z,9.418198
2023-03-11T01:49:50.027Z,9.418150
2023-03-11T01:50:49.789Z,9.418099
2023-03-11T01:51:49.772Z,9.418146
2023-03-11T01:52:49.775Z,9.418114
2023-03-11T01:53:49.753Z,9.418162
2023-03-11T01:54:51.848Z,9.418205
2023-03-11T01:55:50.749Z,9.418202
2023-03-11T01:56:49.745Z,9.418209
2023-03-11T01:57:49.725Z,9.418171
2023-03-11T01:58:49.730Z,9.418200
2023-03-11T01:59:49.735Z,9.418202
2023-03-11T02:00:49.736Z,9.418127
2023-03-11T02:01:49.726Z,9.418130
2023-03-11T02:02:49.748Z,9.418138
2023-03-11T02:03:49.697Z,9.418095
2023-03-11T02:04:49.684Z,9.418092
2023-03-11T02:05:49.695Z,9.418195
2023-03-11T02:06:50.668Z,9.418269
2023-03-11T02:07:49.664Z,9.418473
2023-03-11T02:08:49.683Z,9.418441
2023-03-11T02:09:49.663Z,9.418248
2023-03-11T02:10:49.645Z,9.418109
2023-03-11T02:11:49.670Z,9.418230
2023-03-11T02:12:49.636Z,9.418370
2023-03-11T02:13:49.634Z,9.418229
2023-03-11T02:14:49.625Z,9.418040
2023-03-11T02:15:49.663Z,9.417860
2023-03-11T02:16:49.644Z,9.417868
2023-03-11T02:17:49.602Z,9.417812
2023-03-11T02:18:49.615Z,9.417812
2023-03-11T02:19:49.603Z,9.417812
2023-03-11T02:20:49.597Z,9.417812
2023-03-11T02:21:49.570Z,9.417812
2023-03-11T02:22:49.594Z,9.418351
2023-03-11T02:23:49.567Z,9.417973
2023-03-11T02:24:49.577Z,9.418137
2023-03-11T02:25:49.560Z,9.418021
2023-03-11T02:26:49.555Z,9.418298
2023-03-11T02:27:49.552Z,9.418233
2023-03-11T02:28:49.541Z,9.418410
2023-03-11T02:29:49.536Z,9.418175
2023-03-11T02:30:49.521Z,9.418103
2023-03-11T02:31:49.557Z,9.418275
2023-03-11T02:32:49.594Z,9.418210
2023-03-11T02:33:49.507Z,9.418141
2023-03-11T02:34:49.520Z,9.417914
2023-03-11T02:35:49.542Z,9.417997
2023-03-11T02:36:49.493Z,9.418220
2023-03-11T02:37:49.484Z,9.418387
2023-03-11T02:38:49.540Z,9.418478
2023-03-11T02:39:49.475Z,9.418432
2023-03-11T02:40:49.474Z,9.418444
2023-03-11T02:41:49.460Z,9.418329
2023-03-11T02:42:49.459Z,9.418352
2023-03-11T02:43:49.461Z,9.418352
2023-03-11T02:44:49.468Z,9.418380
2023-03-11T02:45:49.443Z,9.418350
2023-03-11T02:46:49.535Z,9.418518
2023-03-11T02:47:49.422Z,9.418543
2023-03-11T02:48:49.405Z,9.418486
2023-03-11T02:49:49.418Z,9.418481
2023-03-11T02:50:49.403Z,9.418658
2023-03-11T02:51:49.407Z,9.418574
2023-03-11T02:52:49.437Z,9.418398
2023-03-11T02:53:49.387Z,9.418355
2023-03-11T02:54:49.387Z,9.418266
2023-03-11T02:55:49.355Z,9.418397
2023-03-11T02:56:49.356Z,9.418423
2023-03-11T02:57:49.341Z,9.418368
2023-03-11T02:58:49.335Z,9.418293
2023-03-11T02:59:49.341Z,9.418247
2023-03-11T03:00:49.393Z,9.418344
2023-03-11T03:01:49.326Z,9.418378
2023-03-11T03:02:49.326Z,9.418400
2023-03-11T03:03:49.331Z,9.418316
2023-03-11T03:04:49.303Z,9.418238
2023-03-11T03:05:49.301Z,9.418190
2023-03-11T03:06:49.281Z,9.418251
2023-03-11T03:07:49.267Z,9.418409
2023-03-11T03:08:49.280Z,9.418532
2023-03-11T03:09:49.269Z,9.418478
2023-03-11T03:10:49.271Z,9.418376
2023-03-11T03:11:49.253Z,9.418435
2023-03-11T03:12:49.260Z,9.418378
2023-03-11T03:13:49.258Z,9.418136
2023-03-11T03:14:49.234Z,9.418289
2023-03-11T03:15:49.233Z,9.418195
2023-03-11T03:16:49.379Z,9.418001
2023-03-11T03:17:49.213Z,9.418275
2023-03-11T03:18:49.217Z,9.418392
2023-03-11T03:19:49.229Z,9.418375
2023-03-11T03:20:49.203Z,9.418281
2023-03-11T03:21:49.207Z,9.418344
2023-03-11T03:22:49.188Z,9.418291
2023-03-11T03:23:49.184Z,9.418354
2023-03-11T03:24:49.182Z,9.418349
2023-03-11T03:25:49.158Z,9.418328
2023-03-11T03:26:49.163Z,9.418538
2023-03-11T03:27:49.164Z,9.418433
2023-03-11T03:28:49.141Z,9.418501
2023-03-11T03:29:49.168Z,9.418483
2023-03-11T03:30:49.134Z,9.418474
2023-03-11T03:31:49.147Z,9.418420
2023-03-11T03:32:49.135Z,9.418467
2023-03-11T03:33:49.111Z,9.418439
2023-03-11T03:34:49.109Z,9.418384
2023-03-11T03:35:50.159Z,9.418408
2023-03-11T03:36:49.103Z,9.418385
2023-03-11T03:37:49.095Z,9.418380
2023-03-11T03:38:49.098Z,9.418298
2023-03-11T03:39:49.078Z,9.418294
2023-03-11T03:40:49.077Z,9.418285
2023-03-11T03:41:49.104Z,9.418260
2023-03-11T03:42:49.046Z,9.418283
2023-03-11T03:43:49.038Z,9.418283
2023-03-11T03:44:49.038Z,9.418284
2023-03-11T03:45:49.086Z,9.418270
2023-03-11T03:46:49.022Z,9.418272
2023-03-11T03:47:49.012Z,9.418267
2023-03-11T03:48:49.068Z,9.418261
2023-03-11T03:49:48.996Z,9.418216
2023-03-11T03:50:48.998Z,9.418280
2023-03-11T03:51:48.993Z,9.418303
2023-03-11T03:52:48.986Z,9.418285
2023-03-11T03:53:48.977Z,9.418284
2023-03-11T03:54:48.979Z,9.418273
2023-03-11T03:55:48.963Z,9.418247
2023-03-11T03:56:48.954Z,9.418316
2023-03-11T03:57:48.983Z,9.418309
2023-03-11T03:58:48.950Z,9.418249
2023-03-11T03:59:48.931Z,9.418280
2023-03-11T04:00:48.941Z,9.418326
2023-03-11T04:01:49.075Z,9.418358
2023-03-11T04:02:48.911Z,9.418283
2023-03-11T04:03:48.963Z,9.418252
2023-03-11T04:04:48.900Z,9.418270
2023-03-11T04:05:48.892Z,9.418272
2023-03-11T04:06:48.920Z,9.418210
2023-03-11T04:07:48.903Z,9.418306
2023-03-11T04:08:48.875Z,9.418333
2023-03-11T04:09:48.870Z,9.418381
2023-03-11T04:10:48.869Z,9.418364
2023-03-11T04:11:48.880Z,9.418287
2023-03-11T04:12:48.853Z,9.418316
2023-03-11T04:13:48.832Z,9.418302
2023-03-11T04:14:48.842Z,9.418256
2023-03-11T04:15:48.845Z,9.418249
2023-03-11T04:16:48.927Z,9.418378
2023-03-11T04:17:48.860Z,9.418256
2023-03-11T04:18:48.818Z,9.418275
2023-03-11T04:19:48.809Z,9.418373
2023-03-11T04:20:48.803Z,9.418426
2023-03-11T04:21:48.791Z,9.418389
2023-03-11T04:22:48.802Z,9.418281
2023-03-11T04:23:48.802Z,9.418320
2023-03-11T04:24:48.770Z,9.418418
2023-03-11T04:25:48.779Z,9.418413
2023-03-11T04:26:48.754Z,9.418235
2023-03-11T04:27:48.786Z,9.418375
2023-03-11T04:28:48.745Z,9.418316
2023-03-11T04:29:48.747Z,9.418446
2023-03-11T04:30:48.762Z,9.418356
2023-03-11T04:31:48.739Z,9.418839
2023-03-11T04:32:48.792Z,9.418282
2023-03-11T04:33:48.732Z,9.418213
2023-03-11T04:34:48.713Z,9.418304
2023-03-11T04:35:48.726Z,9.417970
2023-03-11T04:36:48.685Z,9.417826
2023-03-11T04:37:48.677Z,9.417932
2023-03-11T04:38:48.697Z,9.417789
2023-03-11T04:39:48.689Z,9.418062
2023-03-11T04:40:48.672Z,9.418078
2023-03-11T04:41:48.651Z,9.418180
2023-03-11T04:42:48.662Z,9.418149
2023-03-11T04:43:48.639Z,9.417911
2023-03-11T04:44:48.654Z,9.418083
2023-03-11T04:45:48.670Z,9.417721
2023-03-11T04:46:48.618Z,9.417771
2023-03-11T04:47:48.618Z,9.417662
2023-03-11T04:48:48.599Z,9.417886
2023-03-11T04:49:48.599Z,9.418422
2023-03-11T04:50:48.621Z,9.418220
2023-03-11T04:51:48.582Z,9.417985
2023-03-11T04:52:48.578Z,9.417814
2023-03-11T04:53:48.576Z,9.417605
2023-03-11T04:54:48.565Z,9.417932
2023-03-11T04:55:48.566Z,9.417888
2023-03-11T04:56:48.549Z,9.417680
2023-03-11T04:57:48.548Z,9.417812
2023-03-11T04:58:48.553Z,9.418187
2023-03-11T04:59:48.521Z,9.418215
2023-03-11T05:00:48.521Z,9.417680
2023-03-11T05:01:48.529Z,9.417380
2023-03-11T05:02:48.506Z,9.417747
2023-03-11T05:03:48.534Z,9.417795
2023-03-11T05:04:48.554Z,9.418058
2023-03-11T05:05:48.490Z,9.418003
2023-03-11T05:06:48.486Z,9.418071
2023-03-11T05:07:48.482Z,9.418425
2023-03-11T05:08:48.515Z,9.417688
2023-03-11T05:09:48.462Z,9.418474
2023-03-11T05:10:48.464Z,9.418601
2023-03-11T05:11:48.450Z,9.418614
2023-03-11T05:12:48.451Z,9.418612
2023-03-11T05:13:48.434Z,9.418073
2023-03-11T05:14:48.467Z,9.417813
2023-03-11T05:15:48.472Z,9.418107
2023-03-11T05:16:48.409Z,9.418208
2023-03-11T05:17:48.426Z,9.418181
2023-03-11T05:18:48.410Z,9.418223
2023-03-11T05:19:48.426Z,9.418175
2023-03-11T05:20:48.446Z,9.418240
2023-03-11T05:21:48.395Z,9.418234
2023-03-11T05:22:48.393Z,9.418179
2023-03-11T05:23:48.383Z,9.418243
2023-03-11T05:24:48.386Z,9.418088
2023-03-11T05:25:48.386Z,9.418249
2023-03-11T05:26:48.673Z,9.418122
2023-03-11T05:27:49.355Z,9.418223
2023-03-11T05:28:48.342Z,9.418234
2023-03-11T05:29:48.362Z,9.418124
2023-03-11T05:30:48.365Z,9.418199
2023-03-11T05:31:48.373Z,9.418282
2023-03-11T05:32:48.364Z,9.418404
2023-03-11T05:33:48.310Z,9.418219
2023-03-11T05:34:48.300Z,9.418208
2023-03-11T05:35:48.366Z,9.418280
2023-03-11T05:36:48.324Z,9.418315
2023-03-11T05:37:48.286Z,9.418291
2023-03-11T05:38:48.281Z,9.418293
2023-03-11T05:39:48.278Z,9.418282
2023-03-11T05:40:48.270Z,9.418189
2023-03-11T05:41:48.280Z,9.418654
2023-03-11T05:42:48.260Z,9.418614
2023-03-11T05:43:48.268Z,9.418661
2023-03-11T05:44:48.269Z,9.418585
2023-03-11T05:45:48.250Z,9.418489
2023-03-11T05:46:48.267Z,9.418461
2023-03-11T05:47:48.277Z,9.418277
2023-03-11T05:48:48.244Z,9.418472
2023-03-11T05:49:48.205Z,9.418509
2023-03-11T05:50:48.237Z,9.418260
2023-03-11T05:51:48.200Z,9.418142
2023-03-11T05:52:48.185Z,9.418105
2023-03-11T05:53:48.189Z,9.418056
2023-03-11T05:54:48.175Z,9.418011
2023-03-11T05:55:48.189Z,9.418067
2023-03-11T05:56:48.173Z,9.418010
2023-03-11T05:57:48.149Z,9.418146
2023-03-11T05:58:48.145Z,9.418152
2023-03-11T05:59:48.153Z,9.418199
2023-03-11T06:00:48.139Z,9.418278
2023-03-11T06:01:48.144Z,9.418261
2023-03-11T06:02:48.135Z,9.418386
2023-03-11T06:03:48.257Z,9.418362
2023-03-11T06:04:48.329Z,9.418275
2023-03-11T06:05:48.099Z,9.418344
2023-03-11T06:06:48.130Z,9.418338
2023-03-11T06:07:48.165Z,9.418286
2023-03-11T06:08:48.085Z,9.418281
2023-03-11T06:09:48.074Z,9.418283
2023-03-11T06:10:49.071Z,9.418249
2023-03-11T06:11:49.073Z,9.418256
2023-03-11T06:12:48.074Z,9.418344
2023-03-11T06:13:49.043Z,9.418284
2023-03-11T06:14:48.038Z,9.418344
2023-03-11T06:15:48.027Z,9.418394
2023-03-11T06:16:48.029Z,9.418290
2023-03-11T06:17:48.044Z,9.418328
2023-03-11T06:18:48.035Z,9.418285
2023-03-11T06:19:48.008Z,9.418200
2023-03-11T06:20:48.006Z,9.418187
2023-03-11T06:21:47.990Z,9.418192
2023-03-11T06:22:47.978Z,9.418194
2023-03-11T06:23:48.003Z,9.418194
2023-03-11T06:24:47.978Z,9.418194
2023-03-11T06:25:47.967Z,9.418184
2023-03-11T06:26:47.995Z,9.418321
2023-03-11T06:27:47.960Z,9.418308
2023-03-11T06:28:48.833Z,9.418182
2023-03-11T06:29:48.781Z,9.418264
2023-03-11T06:30:48.935Z,9.418262
2023-03-11T06:31:47.944Z,9.418251
2023-03-11T06:32:48.047Z,9.418075
2023-03-11T06:33:47.921Z,9.418116
2023-03-11T06:34:47.907Z,9.418116
2023-03-11T06:35:47.912Z,9.418116
2023-03-11T06:36:47.885Z,9.418116
2023-03-11T06:37:47.922Z,9.418300
2023-03-11T06:38:47.886Z,9.418332
2023-03-11T06:39:47.891Z,9.418086
2023-03-11T06:40:47.866Z,9.418230
2023-03-11T06:41:47.875Z,9.418363
2023-03-11T06:42:47.865Z,9.418186
2023-03-11T06:43:47.844Z,9.418273
2023-03-11T06:44:47.858Z,9.418273
2023-03-11T06:45:47.875Z,9.418273
2023-03-11T06:46:47.842Z,9.418284
2023-03-11T06:47:47.815Z,9.418437
2023-03-11T06:48:47.813Z,9.418419
2023-03-11T06:49:47.814Z,9.418416
2023-03-11T06:50:48.519Z,9.418540
2023-03-11T06:51:48.806Z,9.418682
2023-03-11T06:52:47.794Z,9.418578
2023-03-11T06:53:47.777Z,9.418473
2023-03-11T06:54:47.778Z,9.418661
2023-03-11T06:55:47.770Z,9.418633
2023-03-11T06:56:47.799Z,9.418415
2023-03-11T06:57:47.757Z,9.418610
2023-03-11T06:58:47.754Z,9.418355
2023-03-11T06:59:47.747Z,9.418350
2023-03-11T07:00:47.754Z,9.418468
2023-03-11T07:01:47.771Z,9.418585
2023-03-11T07:02:47.725Z,9.418657
2023-03-11T07:03:47.715Z,9.418346
2023-03-11T07:04:47.705Z,9.418306
2023-03-11T07:05:47.678Z,9.418195
2023-03-11T07:06:47.706Z,9.418206
2023-03-11T07:07:47.697Z,9.418454
2023-03-11T07:08:47.683Z,9.418426
2023-03-11T07:09:47.672Z,9.418365
2023-03-11T07:10:47.672Z,9.418265
2023-03-11T07:11:47.667Z,9.418271
2023-03-11T07:12:47.670Z,9.418306
2023-03-11T07:13:47.673Z,9.418270
2023-03-11T07:14:47.635Z,9.418241
2023-03-11T07:15:47.632Z,9.418311
2023-03-11T07:16:47.644Z,9.418255
2023-03-11T07:17:47.631Z,9.418158
2023-03-11T07:18:47.620Z,9.418195
2023-03-11T07:19:47.616Z,9.418255
2023-03-11T07:20:47.606Z,9.418271
2023-03-11T07:21:47.588Z,9.418385
2023-03-11T07:22:47.601Z,9.418185
2023-03-11T07:23:47.604Z,9.418324
2023-03-11T07:24:47.558Z,9.418320
2023-03-11T07:25:47.562Z,9.418341
2023-03-11T07:26:47.555Z,9.418360
2023-03-11T07:27:47.550Z,9.418273
2023-03-11T07:28:47.555Z,9.418308
2023-03-11T07:29:47.528Z,9.418287
2023-03-11T07:30:47.535Z,9.418336
2023-03-11T07:31:47.566Z,9.418317
2023-03-11T07:32:47.561Z,9.418382
2023-03-11T07:33:47.543Z,9.418377
2023-03-11T07:34:47.533Z,9.418322
2023-03-11T07:35:47.533Z,9.418281
2023-03-11T07:36:47.484Z,9.418283
2023-03-11T07:37:47.488Z,9.418257
2023-03-11T07:38:47.514Z,9.418203
2023-03-11T07:39:47.468Z,9.418242
2023-03-11T07:40:47.483Z,9.418263
2023-03-11T07:41:47.469Z,9.418244
2023-03-11T07:42:47.450Z,9.418272
2023-03-11T07:43:47.461Z,9.418242
2023-03-11T07:44:47.434Z,9.418305
2023-03-11T07:45:47.461Z,9.418249
2023-03-11T07:46:47.416Z,9.418296
2023-03-11T07:47:47.426Z,9.418282
2023-03-11T07:48:47.423Z,9.418325
2023-03-11T07:49:47.405Z,9.418289
2023-03-11T07:50:47.434Z,9.418291
2023-03-11T07:51:47.382Z,9.418226
2023-03-11T07:52:47.387Z,9.418228
2023-03-11T07:53:47.381Z,9.418277
2023-03-11T07:54:47.365Z,9.418316
2023-03-11T07:55:47.371Z,9.418324
2023-03-11T07:56:47.386Z,9.418279
2023-03-11T07:57:47.343Z,9.418413
2023-03-11T07:58:47.329Z,9.418490
2023-03-11T07:59:47.324Z,9.418408
2023-03-11T08:00:47.316Z,9.418387
2023-03-11T08:01:47.536Z,9.418332
2023-03-11T08:02:47.336Z,9.418311
2023-03-11T08:03:47.366Z,9.418334
2023-03-11T08:04:47.294Z,9.418331
2023-03-11T08:05:47.327Z,9.418304
2023-03-11T08:06:47.280Z,9.418302
2023-03-11T08:07:47.289Z,9.418304
2023-03-11T08:08:47.269Z,9.418240
2023-03-11T08:09:47.267Z,9.418293
2023-03-11T08:10:47.257Z,9.418289
2023-03-11T08:11:49.594Z,9.418244
2023-03-11T08:12:47.247Z,9.418196
2023-03-11T08:13:47.242Z,9.418171
2023-03-11T08:14:47.227Z,9.418227
2023-03-11T08:15:47.260Z,9.418310
2023-03-11T08:16:47.214Z,9.418174
2023-03-11T08:17:47.227Z,9.418221
2023-03-11T08:18:47.209Z,9.418286
2023-03-11T08:19:47.227Z,9.418289
2023-03-11T08:20:47.184Z,9.418283
2023-03-11T08:21:47.182Z,9.418229
2023-03-11T08:22:57.556Z,9.418178
2023-03-11T08:23:49.153Z,9.418124
2023-03-11T08:24:48.180Z,9.418139
2023-03-11T08:25:47.149Z,9.418061
2023-03-11T08:26:47.148Z,9.418152
2023-03-11T08:27:47.149Z,9.418159
2023-03-11T08:28:47.129Z,9.418079
2023-03-11T08:29:47.134Z,9.418175
2023-03-11T08:30:47.142Z,9.418249
2023-03-11T08:31:47.128Z,9.418181
2023-03-11T08:32:47.183Z,9.418202
2023-03-11T08:33:47.081Z,9.418256
2023-03-11T08:34:47.159Z,9.418198
2023-03-11T08:35:47.101Z,9.418284
2023-03-11T08:36:47.086Z,9.418114
2023-03-11T08:37:47.062Z,9.418069
2023-03-11T08:38:47.136Z,9.418141
2023-03-11T08:39:47.070Z,9.418330
2023-03-11T08:40:47.057Z,9.418231
2023-03-11T08:41:47.029Z,9.418110
2023-03-11T08:42:47.027Z,9.418157
2023-03-11T08:43:47.017Z,9.418123
2023-03-11T08:44:47.033Z,9.418175
2023-03-11T08:45:47.033Z,9.418308
2023-03-11T08:46:47.091Z,9.418279
2023-03-11T08:47:46.997Z,9.418158
2023-03-11T08:48:47.114Z,9.418316
2023-03-11T08:49:46.981Z,9.418358
2023-03-11T08:50:53.880Z,9.418307
2023-03-11T08:51:48.975Z,9.418310
2023-03-11T08:52:46.960Z,9.418192
2023-03-11T08:53:47.000Z,9.418163
2023-03-11T08:54:47.839Z,9.418254
2023-03-11T08:55:46.941Z,9.418294
2023-03-11T08:56:46.929Z,9.418258
2023-03-11T08:57:46.904Z,9.418273
2023-03-11T08:58:46.911Z,9.418305
2023-03-11T08:59:46.910Z,9.418289
2023-03-11T09:00:46.898Z,9.418283
2023-03-11T09:01:46.899Z,9.418287
2023-03-11T09:02:46.894Z,9.418288
2023-03-11T09:03:46.876Z,9.418307
2023-03-11T09:04:46.869Z,9.418335
2023-03-11T09:05:49.081Z,9.418342
2023-03-11T09:06:46.847Z,9.418300
2023-03-11T09:07:46.836Z,9.418357
2023-03-11T09:08:46.852Z,9.418354
2023-03-11T09:09:46.826Z,9.418317
2023-03-11T09:10:46.820Z,9.418412
2023-03-11T09:11:46.828Z,9.418323
2023-03-11T09:12:46.820Z,9.418332
2023-03-11T09:13:46.800Z,9.418355
2023-03-11T09:14:46.803Z,9.418355
2023-03-11T09:15:46.936Z,9.418238
2023-03-11T09:16:46.786Z,9.418320
2023-03-11T09:17:46.770Z,9.418365
2023-03-11T09:18:46.770Z,9.418353
2023-03-11T09:19:46.755Z,9.418358
2023-03-11T09:20:46.786Z,9.418375
2023-03-11T09:21:46.746Z,9.418397
2023-03-11T09:22:46.747Z,9.418403
2023-03-11T09:23:46.737Z,9.418384
2023-03-11T09:24:46.729Z,9.418429
2023-03-11T09:25:46.716Z,9.418415
2023-03-11T09:26:46.734Z,9.418423
2023-03-11T09:27:46.707Z,9.418399
2023-03-11T09:28:46.713Z,9.418386
2023-03-11T09:29:46.698Z,9.418333
2023-03-11T09:30:46.915Z,9.418425
2023-03-11T09:31:46.724Z,9.418451
2023-03-11T09:32:46.718Z,9.418515
2023-03-11T09:33:46.664Z,9.418378
2023-03-11T09:34:46.669Z,9.418417
2023-03-11T09:35:46.737Z,9.418397
2023-03-11T09:36:46.656Z,9.418432
2023-03-11T09:37:46.653Z,9.418433
2023-03-11T09:38:46.632Z,9.418436
2023-03-11T09:39:46.633Z,9.418471
2023-03-11T09:40:47.175Z,9.418471
2023-03-11T09:41:57.483Z,9.418456
2023-03-11T09:42:48.608Z,9.418409
2023-03-11T09:43:46.590Z,9.418368
2023-03-11T09:44:46.587Z,9.418357
2023-03-11T09:45:46.587Z,9.418297
2023-03-11T09:46:46.642Z,9.418324
2023-03-11T09:47:46.581Z,9.418247
2023-03-11T09:48:46.551Z,9.418233
2023-03-11T09:49:46.558Z,9.418332
2023-03-11T09:50:46.551Z,9.418496
2023-03-11T09:51:46.546Z,9.418646
2023-03-11T09:52:46.538Z,9.418467
2023-03-11T09:53:46.581Z,9.418376
2023-03-11T09:54:46.522Z,9.418317
2023-03-11T09:55:46.516Z,9.418316
2023-03-11T09:56:46.508Z,9.418350
2023-03-11T09:57:46.501Z,9.418391
2023-03-11T09:58:46.494Z,9.418377
2023-03-11T09:59:46.496Z,9.418334
2023-03-11T10:00:46.476Z,9.418273
2023-03-11T10:01:46.530Z,9.418363
2023-03-11T10:02:46.565Z,9.418378
2023-03-11T10:03:46.457Z,9.418346
2023-03-11T10:04:46.450Z,9.418287
2023-03-11T10:05:46.441Z,9.418272
2023-03-11T10:06:46.436Z,9.418270
2023-03-11T10:07:46.444Z,9.418275
2023-03-11T10:08:46.484Z,9.418284
2023-03-11T10:09:46.459Z,9.418333
2023-03-11T10:10:46.413Z,9.418303
2023-03-11T10:11:46.400Z,9.418309
2023-03-11T10:12:46.406Z,9.418290
2023-03-11T10:13:46.402Z,9.418269
2023-03-11T10:14:46.457Z,9.418310
2023-03-11T10:15:46.376Z,9.418228
2023-03-11T10:16:46.438Z,9.418238
2023-03-11T10:17:46.362Z,9.418225
2023-03-11T10:18:46.364Z,9.418235
2023-03-11T10:19:46.367Z,9.418283
2023-03-11T10:20:46.328Z,9.418336
2023-03-11T10:21:46.330Z,9.418282
2023-03-11T10:22:46.320Z,9.418261
2023-03-11T10:23:46.305Z,9.418261
2023-03-11T10:24:46.314Z,9.418316
2023-03-11T10:25:46.310Z,9.418325
2023-03-11T10:26:46.293Z,9.418308
2023-03-11T10:27:46.283Z,9.418284
2023-03-11T10:28:46.291Z,9.418316
2023-03-11T10:29:46.271Z,9.418325
2023-03-11T10:30:46.257Z,9.418264
2023-03-11T10:31:46.311Z,9.418327
2023-03-11T10:32:46.288Z,9.418339
2023-03-11T10:33:47.867Z,9.418341
2023-03-11T10:34:47.251Z,9.418402
2023-03-11T10:35:46.326Z,9.418340
2023-03-11T10:36:46.221Z,9.418298
2023-03-11T10:37:49.813Z,9.418297
2023-03-11T10:38:47.231Z,9.418357
2023-03-11T10:39:46.203Z,9.418328
2023-03-11T10:40:46.203Z,9.418294
2023-03-11T10:41:46.188Z,9.418256
2023-03-11T10:42:46.203Z,9.418283
2023-03-11T10:43:46.199Z,9.418373
2023-03-11T10:44:46.169Z,9.418360
2023-03-11T10:45:46.225Z,9.418311
2023-03-11T10:46:46.159Z,9.418370
2023-03-11T10:47:46.161Z,9.418454
2023-03-11T10:48:46.131Z,9.418365
2023-03-11T10:49:46.125Z,9.418420
2023-03-11T10:50:46.128Z,9.418373
2023-03-11T10:51:46.115Z,9.418347
2023-03-11T10:52:46.109Z,9.418315
2023-03-11T10:53:46.115Z,9.418337
2023-03-11T10:54:46.172Z,9.418289
2023-03-11T10:55:46.089Z,9.418365
2023-03-11T10:56:46.090Z,9.418377
2023-03-11T10:57:46.085Z,9.418487
2023-03-11T10:58:46.076Z,9.418450
2023-03-11T10:59:46.067Z,9.418393
2023-03-11T11:00:46.078Z,9.418438
2023-03-11T11:01:46.059Z,9.418375
2023-03-11T11:02:46.049Z,9.418324
2023-03-11T11:03:46.040Z,9.418285
2023-03-11T11:04:46.030Z,9.418299
2023-03-11T11:05:46.036Z,9.418438
2023-03-11T11:06:46.028Z,9.418324
2023-03-11T11:07:46.004Z,9.418298
2023-03-11T11:08:46.010Z,9.418214
2023-03-11T11:09:46.004Z,9.418314
2023-03-11T11:10:46.031Z,9.418290
2023-03-11T11:11:45.986Z,9.418359
2023-03-11T11:12:45.980Z,9.418369
2023-03-11T11:13:45.979Z,9.418283
2023-03-11T11:14:45.984Z,9.418459
2023-03-11T11:15:45.956Z,9.418348
2023-03-11T11:16:46.030Z,9.418229
2023-03-11T11:17:45.950Z,9.418231
2023-03-11T11:18:48.814Z,9.418291
2023-03-11T11:19:45.937Z,9.418390
2023-03-11T11:20:45.928Z,9.418408
2023-03-11T11:21:45.931Z,9.418479
2023-03-11T11:22:45.934Z,9.418290
2023-03-11T11:23:45.908Z,9.418353
2023-03-11T11:24:45.910Z,9.418388
2023-03-11T11:25:45.916Z,9.418221
2023-03-11T11:26:45.900Z,9.418291
2023-03-11T11:27:45.913Z,9.418110
2023-03-11T11:28:45.881Z,9.418187
2023-03-11T11:29:45.873Z,9.418212
2023-03-11T11:30:45.900Z,9.418170
2023-03-11T11:31:45.856Z,9.418207
2023-03-11T11:32:45.984Z,9.418064
2023-03-11T11:33:45.852Z,9.418196
2023-03-11T11:34:45.861Z,9.418205
2023-03-11T11:35:45.871Z,9.418247
2023-03-11T11:36:45.811Z,9.418283
2023-03-11T11:37:46.028Z,9.418202
2023-03-11T11:38:45.821Z,9.418192
2023-03-11T11:39:45.795Z,9.418310
2023-03-11T11:40:45.788Z,9.418344
2023-03-11T11:41:45.771Z,9.418387
2023-03-11T11:42:45.781Z,9.418275
2023-03-11T11:43:45.773Z,9.418257
2023-03-11T11:44:45.775Z,9.418214